Aeroporto :
LOGIN :

Iscrizione | Disclaimer

   EN    FR    IT 

 










Sommario :    VFR   VFR Marginale   IFR   IFR Intensivo   IFR Molto Intensivo
Visibilità : 
Base nubi : 
>= 8 km
>= 3000ft
5 / 8 km
1000 / 3000 ft
1500m / 5 km
500 / 1000 ft
800 / 1500m
200 / 500 ft
< 800m
< 200 ft
Simboli :   Temporali  Nebbia  Neve Forte  Precipitazioni Forti  Vento > 20 kt
SIGMETs :   Varie  Temporali  Ghiacco  Turbolenza  Onda orograficha  Ceneri Vulcaniche






- Altitudine del aeroporto : 0 ft


ETEB - Ansbach Army Heliport

ULTIMO METAR :
  • 210056Z AUTO 02003KT 9999 CLR M03/M03 A3078 RMK AO2 SLP466 T10281028 $

METARs OBSOLETI :
  • 202356Z AUTO 03003KT 9999 CLR M03/M03 A3079 RMK AO2 SLP470 T10261026 10001 21027 57006 $
  • 202256Z AUTO 05004KT 9999 CLR M02/M02 A3080 RMK AO2 SLP473 T10241024 400321027 $

TAF TAF ETEB
Valido dal 20 a 22 ore il 22 a 04 ore UTC


202205Z 2022/2204 08006KT 9999 BKN030 QNH3079INS
BECMG 2101/2102 10006KT 9999 SKC QNH3074INS TX02/2113Z TNM03/2106Z



MetMap, La meteo Aeronautica in un colpo d'occhio ! - Copyright ORBIFLY Dicembre 2007 - Disclaimer

ORBIFLY MET'MAP TEAM :

Programmazione e sviluppo : Alexandra Zaïnal
Concezione : Baudouin d'Aumeries
Aiuto per la programmazione : Marc-Olivier Méhu
Supporto tecnico e logistico : Manuel Goepfert
Aiuto per la traduzione : Arnaldo La Scala

Contatto : metmap@orbifly.com




FONTI E CREDITI :

   NOAA